Headland, Alabama
Current Conditions -  °F | °C
As of 12:53 PM on Saturday 20 Dec 2014 (Local Time) from KDHN Reporting Station
Broken Clouds Broken Clouds  
Wind Chill: 13°   Ceiling: 9500
Heat Index: 13°   Visibility: 10mi
Dew Point: 10°   Wind: 7mph
Humidity: 80%   Direction: 50°NE
Pressure: 30.14"   Gusts: NA
Location:  31.35°N, 85.34°W
Report Text: KDHN 201853Z 05006KT 10SM FEW012 BKN095 13/10 A3014 RMK AO2 SLP203 T01330100
Loading
Personal Weather Stations






























Interactive Weather Map New forecast layout! Learn more

10-Day Weather Forecast

Advertisements
Track Severe Weather on mobile